Time;durP1;ratioP1;P1;durP2;ratioP2;P2;SDS_P1;SDS_P2;PMS_P1;PMS_P2;Temp;Humidity;BMP_temperature;BMP_pressure;BME280_temperature;BME280_humidity;BME280_pressure;Samples;Min_cycle;Max_cycle;Signal;HPM_P1;HPM_P2
2021/09/07 00:00:29;;;;;;;12.67;7.10;;;18.50;99.90;;;;;;5042569;28;20514;-74
2021/09/07 00:02:56;;;;;;;11.93;7.80;;;18.40;99.90;;;;;;5043802;28;20470;-76
2021/09/07 00:05:23;;;;;;;15.77;6.50;;;18.40;99.90;;;;;;5035351;28;20490;-70
2021/09/07 00:07:53;;;;;;;9.20;6.30;;;18.40;99.90;;;;;;5033180;28;20527;-72
2021/09/07 00:10:20;;;;;;;14.77;6.90;;;18.40;99.90;;;;;;5036597;28;20451;-73
2021/09/07 00:12:47;;;;;;;9.47;6.20;;;18.40;99.90;;;;;;5043839;28;20487;-70
2021/09/07 00:15:16;;;;;;;9.57;6.57;;;18.40;99.90;;;;;;5043913;28;20578;-72
2021/09/07 00:17:44;;;;;;;18.23;7.70;;;18.30;99.90;;;;;;5038726;28;20534;-70
2021/09/07 00:20:14;;;;;;;12.13;7.10;;;18.30;99.90;;;;;;5043037;28;20542;-73
2021/09/07 00:22:42;;;;;;;12.53;7.17;;;18.30;99.90;;;;;;5038269;28;20527;-70
2021/09/07 00:25:10;;;;;;;17.60;7.20;;;18.20;99.90;;;;;;5041936;28;20996;-74
2021/09/07 00:27:37;;;;;;;10.53;6.70;;;18.10;99.90;;;;;;5045270;28;20948;-71
2021/09/07 00:30:05;;;;;;;8.43;5.53;;;18.00;99.90;;;;;;5036633;28;20545;-70
2021/09/07 00:32:32;;;;;;;11.17;7.70;;;18.00;99.90;;;;;;5036951;28;20467;-71
2021/09/07 00:35:00;;;;;;;13.27;7.10;;;18.00;99.90;;;;;;5034238;28;20580;-72
2021/09/07 00:37:27;;;;;;;13.20;7.07;;;18.10;99.90;;;;;;5042173;28;20443;-70
2021/09/07 00:39:54;;;;;;;11.73;6.00;;;18.00;99.90;;;;;;5038971;28;20466;-70
2021/09/07 00:42:21;;;;;;;9.53;6.80;;;17.90;99.90;;;;;;5035767;28;20467;-74
2021/09/07 00:44:48;;;;;;;10.73;6.63;;;17.80;99.90;;;;;;5031529;28;20503;-70
2021/09/07 00:47:15;;;;;;;16.10;6.57;;;17.60;99.90;;;;;;5041685;28;20458;-74
2021/09/07 00:49:42;;;;;;;15.00;6.50;;;17.60;99.90;;;;;;5035213;28;20578;-71
2021/09/07 00:52:10;;;;;;;14.87;6.90;;;17.60;99.90;;;;;;5041050;28;20542;-73
2021/09/07 00:54:39;;;;;;;11.67;7.83;;;17.60;99.90;;;;;;5033835;28;20511;-75
2021/09/07 00:57:10;;;;;;;23.53;8.40;;;17.60;99.90;;;;;;5041472;28;20542;-70
2021/09/07 00:59:38;;;;;;;22.00;9.90;;;17.70;99.90;;;;;;5036917;28;21034;-74
2021/09/07 01:02:07;;;;;;;11.47;7.37;;;17.70;99.90;;;;;;5040355;28;20542;-70
2021/09/07 01:04:34;;;;;;;20.00;7.03;;;17.60;99.90;;;;;;5034419;28;20566;-71
2021/09/07 01:07:02;;;;;;;20.27;7.43;;;17.60;99.90;;;;;;5034244;28;20521;-70
2021/09/07 01:09:30;;;;;;;12.27;7.13;;;17.50;99.90;;;;;;5047922;28;20455;-70
2021/09/07 01:11:58;;;;;;;18.57;8.10;;;17.50;99.90;;;;;;5039882;28;20585;-70
2021/09/07 01:14:29;;;;;;;25.13;9.20;;;17.50;99.90;;;;;;5041662;28;20505;-72
2021/09/07 01:16:56;;;;;;;16.87;7.23;;;17.50;99.90;;;;;;5035860;28;20491;-73
2021/09/07 01:19:23;;;;;;;18.30;7.00;;;17.50;99.90;;;;;;5032231;28;20439;-70
2021/09/07 01:21:49;;;;;;;14.57;8.27;;;17.40;99.90;;;;;;5039862;28;20498;-70
2021/09/07 01:24:21;;;;;;;10.00;6.50;;;17.40;99.90;;;;;;5043251;28;20560;-71
2021/09/07 01:26:48;;;;;;;17.80;5.80;;;17.30;99.90;;;;;;5039265;28;20850;-71
2021/09/07 01:29:15;;;;;;;12.80;6.43;;;17.20;99.90;;;;;;5042740;28;20487;-70
2021/09/07 01:31:42;;;;;;;13.33;6.27;;;17.20;99.90;;;;;;5037090;28;21174;-73
2021/09/07 01:34:10;;;;;;;21.10;6.70;;;17.10;99.90;;;;;;5040855;28;20556;-70
2021/09/07 01:36:37;;;;;;;21.83;7.90;;;17.10;99.90;;;;;;5038568;28;20447;-72
2021/09/07 01:39:04;;;;;;;12.17;6.60;;;17.00;99.90;;;;;;5045751;28;20554;-71
2021/09/07 01:41:32;;;;;;;12.93;6.20;;;17.00;99.90;;;;;;5045237;28;20629;-73
2021/09/07 01:44:01;;;;;;;12.90;6.00;;;16.90;99.90;;;;;;5039436;28;20526;-72
2021/09/07 01:46:28;;;;;;;12.13;6.70;;;17.00;99.90;;;;;;5038077;28;20452;-70
2021/09/07 01:48:55;;;;;;;11.97;7.60;;;17.00;99.90;;;;;;5043493;28;20550;-72
2021/09/07 01:51:22;;;;;;;12.37;7.20;;;17.00;99.90;;;;;;5035239;28;20457;-71
2021/09/07 01:53:49;;;;;;;10.33;5.60;;;17.00;99.90;;;;;;5040159;28;20507;-71
2021/09/07 01:56:15;;;;;;;8.80;5.60;;;17.10;99.90;;;;;;5042293;28;20570;-76
2021/09/07 01:58:44;;;;;;;14.27;7.40;;;17.10;99.90;;;;;;5040413;28;20462;-70
2021/09/07 02:01:11;;;;;;;11.50;6.30;;;17.10;99.90;;;;;;5037929;28;20572;-70
2021/09/07 02:03:38;;;;;;;10.63;6.37;;;17.20;99.90;;;;;;5031585;28;20483;-72
2021/09/07 02:06:05;;;;;;;10.40;7.23;;;17.20;99.90;;;;;;5035380;28;20547;-74
2021/09/07 02:08:32;;;;;;;10.53;5.60;;;17.30;99.90;;;;;;5033940;28;20452;-71
2021/09/07 02:10:59;;;;;;;14.87;7.20;;;17.30;99.90;;;;;;5041062;28;20552;-72
2021/09/07 02:13:26;;;;;;;10.07;6.60;;;17.40;99.90;;;;;;5038253;28;20439;-71
2021/09/07 02:15:54;;;;;;;15.23;6.90;;;17.40;99.90;;;;;;5036452;28;20972;-71
2021/09/07 02:18:21;;;;;;;8.50;7.10;;;17.40;99.90;;;;;;5044930;28;20875;-71
2021/09/07 02:20:48;;;;;;;13.23;7.03;;;17.40;99.90;;;;;;5040451;28;20534;-72
2021/09/07 02:23:15;;;;;;;8.63;5.13;;;17.40;99.90;;;;;;5031370;28;20464;-76
2021/09/07 02:25:42;;;;;;;8.40;6.37;;;17.40;99.90;;;;;;5035857;28;20470;-71
2021/09/07 02:28:12;;;;;;;10.07;6.33;;;17.50;99.90;;;;;;5044006;28;20447;-71
2021/09/07 02:30:39;;;;;;;15.20;5.47;;;17.50;99.90;;;;;;5038076;28;20456;-72
2021/09/07 02:33:08;;;;;;;10.03;6.80;;;17.50;99.90;;;;;;5037660;28;20460;-74
2021/09/07 02:35:35;;;;;;;12.67;6.90;;;17.50;99.90;;;;;;5033032;28;20523;-71
2021/09/07 02:38:03;;;;;;;10.30;7.00;;;17.50;99.90;;;;;;5034394;28;20547;-76
2021/09/07 02:40:30;;;;;;;6.93;5.93;;;17.40;99.90;;;;;;5034609;28;20492;-74
2021/09/07 02:42:57;;;;;;;10.20;6.40;;;17.40;99.90;;;;;;5040415;28;20530;-73
2021/09/07 02:45:24;;;;;;;11.97;7.17;;;17.30;99.90;;;;;;5042389;28;20568;-74
2021/09/07 02:47:52;;;;;;;11.60;5.80;;;17.30;99.90;;;;;;5038879;28;21834;-71
2021/09/07 02:50:22;;;;;;;10.43;6.17;;;17.30;99.90;;;;;;5034968;28;20546;-70
2021/09/07 02:52:49;;;;;;;13.07;8.93;;;17.50;99.90;;;;;;5042196;28;20606;-72
2021/09/07 02:55:16;;;;;;;15.10;8.90;;;17.30;99.90;;;;;;5039170;28;20508;-69
2021/09/07 02:57:43;;;;;;;15.00;6.80;;;17.20;99.90;;;;;;5036129;28;20536;-73
2021/09/07 03:00:11;;;;;;;11.77;6.63;;;17.30;99.90;;;;;;5034767;28;20455;-71
2021/09/07 03:02:38;;;;;;;21.00;9.03;;;17.50;99.90;;;;;;5034449;28;20456;-70
2021/09/07 03:05:05;;;;;;;14.53;7.70;;;17.50;99.90;;;;;;5027720;28;20479;-70
2021/09/07 03:07:34;;;;;;;14.23;9.30;;;17.60;99.90;;;;;;5032245;28;20447;-72
2021/09/07 03:10:00;;;;;;;17.20;10.70;;;17.50;99.90;;;;;;5031553;28;20533;-71
2021/09/07 03:12:27;;;;;;;14.47;8.07;;;17.40;99.90;;;;;;5029429;28;20553;-78
2021/09/07 03:14:54;;;;;;;15.37;7.77;;;17.40;99.90;;;;;;5025049;28;20489;-72
2021/09/07 03:17:21;;;;;;;14.50;8.20;;;17.40;99.90;;;;;;5032709;28;20421;-74
2021/09/07 03:19:48;;;;;;;15.50;8.53;;;17.50;99.90;;;;;;5035662;28;20444;-70
2021/09/07 03:22:15;;;;;;;13.20;8.70;;;17.50;99.90;;;;;;5037894;28;20574;-68
2021/09/07 03:24:43;;;;;;;16.17;9.47;;;17.60;99.90;;;;;;5039781;28;20573;-73
2021/09/07 03:27:10;;;;;;;15.37;10.00;;;17.60;99.90;;;;;;5041830;28;20539;-70
2021/09/07 03:29:37;;;;;;;18.73;10.93;;;17.60;99.90;;;;;;5033485;28;20567;-71
2021/09/07 03:32:05;;;;;;;16.93;9.60;;;17.60;99.90;;;;;;5036905;28;20554;-71
2021/09/07 03:34:32;;;;;;;13.93;8.73;;;17.70;99.90;;;;;;5029087;28;20566;-76
2021/09/07 03:36:59;;;;;;;21.73;11.00;;;17.70;99.90;;;;;;5042672;28;20565;-70
2021/09/07 03:39:25;;;;;;;15.37;10.80;;;17.80;99.90;;;;;;5027653;28;20861;-70
2021/09/07 03:41:54;;;;;;;17.27;9.67;;;17.80;99.90;;;;;;5032864;28;20538;-73
2021/09/07 03:44:21;;;;;;;14.53;8.80;;;17.90;99.90;;;;;;5035761;28;20487;-74
2021/09/07 03:46:48;;;;;;;12.73;7.27;;;17.90;99.90;;;;;;5039802;28;20891;-70
2021/09/07 03:49:15;;;;;;;16.03;7.70;;;17.70;99.90;;;;;;5040573;28;20451;-71
2021/09/07 03:51:42;;;;;;;16.23;8.90;;;17.60;99.90;;;;;;5035938;28;20526;-73
2021/09/07 03:54:08;;;;;;;21.13;7.97;;;17.60;99.90;;;;;;5028125;28;20574;-73
2021/09/07 03:56:36;;;;;;;14.13;8.70;;;17.40;99.90;;;;;;5037299;28;20584;-71
2021/09/07 03:59:04;;;;;;;16.97;9.90;;;17.60;99.90;;;;;;5035395;28;20551;-71
2021/09/07 04:01:31;;;;;;;17.97;8.97;;;17.60;99.90;;;;;;5033208;28;20447;-76
2021/09/07 04:03:58;;;;;;;13.73;8.30;;;17.60;99.90;;;;;;5029731;28;20883;-70
2021/09/07 04:06:25;;;;;;;20.50;8.50;;;17.70;99.90;;;;;;5029473;28;20945;-70
2021/09/07 04:08:52;;;;;;;19.90;8.80;;;17.60;99.90;;;;;;5026328;28;20700;-71
2021/09/07 04:11:19;;;;;;;15.60;9.73;;;17.70;99.90;;;;;;5032513;28;20574;-71
2021/09/07 04:13:46;;;;;;;16.93;8.90;;;17.70;99.90;;;;;;5035005;28;20540;-70
2021/09/07 04:16:14;;;;;;;15.60;8.33;;;17.60;99.90;;;;;;5030356;28;20515;-74
2021/09/07 04:18:41;;;;;;;16.30;8.60;;;17.30;99.90;;;;;;5043609;28;20546;-74
2021/09/07 04:21:10;;;;;;;11.90;7.93;;;17.10;99.90;;;;;;5028927;28;20879;-73
2021/09/07 04:23:37;;;;;;;14.30;8.00;;;17.20;99.90;;;;;;5030664;28;20487;-73
2021/09/07 04:26:05;;;;;;;13.00;7.57;;;17.30;99.90;;;;;;5026119;28;20680;-70
2021/09/07 04:28:32;;;;;;;16.33;8.03;;;17.20;99.90;;;;;;5032249;28;20467;-74
2021/09/07 04:30:59;;;;;;;16.83;8.00;;;17.00;99.90;;;;;;5030668;28;20461;-76
2021/09/07 04:33:28;;;;;;;16.27;8.97;;;16.90;99.90;;;;;;5021571;28;20459;-73
2021/09/07 04:35:55;;;;;;;15.87;7.87;;;16.90;99.90;;;;;;5035084;28;20482;-70
2021/09/07 04:38:22;;;;;;;16.20;8.93;;;16.70;99.90;;;;;;5031755;28;20456;-71
2021/09/07 04:40:49;;;;;;;12.93;8.03;;;16.90;99.90;;;;;;5038297;28;20452;-70
2021/09/07 04:43:16;;;;;;;16.20;8.00;;;17.00;99.90;;;;;;5034194;28;20955;-73
2021/09/07 04:45:42;;;;;;;12.63;8.10;;;17.10;99.90;;;;;;5038461;28;20559;-76
2021/09/07 04:48:10;;;;;;;13.47;8.10;;;17.30;99.90;;;;;;5036098;28;20534;-74
2021/09/07 04:50:38;;;;;;;20.03;10.43;;;17.20;99.90;;;;;;5034346;28;21324;-71
2021/09/07 04:53:06;;;;;;;18.10;8.70;;;17.40;99.90;;;;;;5032787;28;20551;-69
2021/09/07 04:55:33;;;;;;;24.60;8.50;;;17.40;99.90;;;;;;5047865;28;20577;-70
2021/09/07 04:57:59;;;;;;;19.80;9.80;;;17.40;99.90;;;;;;5034561;28;21076;-70
2021/09/07 05:00:26;;;;;;;14.70;7.30;;;17.50;99.90;;;;;;5042643;28;21024;-71
2021/09/07 05:02:53;;;;;;;15.30;7.80;;;17.40;99.90;;;;;;5040953;28;20509;-70
2021/09/07 05:05:21;;;;;;;13.07;8.50;;;17.50;99.90;;;;;;5051826;28;20554;-71
2021/09/07 05:07:50;;;;;;;12.90;7.33;;;17.40;99.90;;;;;;5049518;28;20538;-74
2021/09/07 05:10:16;;;;;;;16.57;10.07;;;17.50;99.90;;;;;;5051362;28;20933;-70
2021/09/07 05:12:44;;;;;;;18.57;10.40;;;17.60;99.90;;;;;;5044114;28;20542;-70
2021/09/07 05:15:11;;;;;;;14.83;7.80;;;17.60;99.90;;;;;;5037158;28;20562;-71
2021/09/07 05:17:38;;;;;;;14.37;8.10;;;17.60;99.90;;;;;;5036036;28;20533;-69
2021/09/07 05:20:06;;;;;;;17.90;9.33;;;17.50;99.90;;;;;;5044215;28;20447;-70
2021/09/07 05:22:33;;;;;;;12.43;6.70;;;17.60;99.90;;;;;;5040417;28;20546;-71
2021/09/07 05:25:05;;;;;;;15.10;8.60;;;17.50;99.90;;;;;;5045432;28;20584;-73
2021/09/07 05:27:32;;;;;;;15.47;9.50;;;17.60;99.90;;;;;;5051356;28;20443;-72
2021/09/07 05:29:59;;;;;;;27.27;9.27;;;17.60;99.90;;;;;;5046597;28;20486;-69
2021/09/07 05:32:26;;;;;;;10.70;6.57;;;17.60;99.90;;;;;;5036622;28;20872;-72
2021/09/07 05:34:53;;;;;;;19.40;9.50;;;17.30;99.90;;;;;;5039204;28;20565;-71
2021/09/07 05:37:20;;;;;;;12.53;8.30;;;17.40;99.90;;;;;;5035175;28;20957;-70
2021/09/07 05:39:47;;;;;;;14.13;8.93;;;17.50;99.90;;;;;;5038902;28;20487;-69
2021/09/07 05:42:15;;;;;;;17.00;8.17;;;17.60;99.90;;;;;;5037745;28;21035;-70
2021/09/07 05:44:42;;;;;;;15.50;9.33;;;17.80;99.90;;;;;;5049693;28;20479;-71
2021/09/07 05:47:09;;;;;;;22.33;7.97;;;17.90;99.90;;;;;;5044078;28;20539;-72
2021/09/07 05:49:36;;;;;;;18.03;8.27;;;18.00;99.90;;;;;;5036762;28;20463;-70
2021/09/07 05:52:04;;;;;;;24.93;8.53;;;18.00;99.90;;;;;;5035677;28;20949;-77
2021/09/07 05:54:31;;;;;;;25.60;8.90;;;18.00;99.90;;;;;;5035422;28;21021;-69
2021/09/07 05:56:58;;;;;;;15.00;9.10;;;18.10;99.90;;;;;;5036346;28;20567;-73
2021/09/07 05:59:26;;;;;;;17.50;9.37;;;18.20;99.90;;;;;;5040197;28;20474;-69
2021/09/07 06:01:53;;;;;;;15.50;9.53;;;18.20;99.90;;;;;;5038832;28;20466;-74
2021/09/07 06:04:20;;;;;;;17.57;10.00;;;18.20;99.90;;;;;;5043337;28;20493;-73
2021/09/07 06:06:47;;;;;;;16.40;10.50;;;18.30;99.90;;;;;;5040235;28;20493;-71
2021/09/07 06:09:14;;;;;;;16.30;10.10;;;18.30;99.90;;;;;;5041795;28;20596;-71
2021/09/07 06:11:42;;;;;;;17.83;10.70;;;18.30;99.90;;;;;;5036402;28;20897;-70
2021/09/07 06:14:10;;;;;;;11.30;8.10;;;18.40;99.90;;;;;;5039499;28;20478;-70
2021/09/07 06:16:38;;;;;;;20.10;10.60;;;18.40;99.90;;;;;;5041654;28;20610;-71
2021/09/07 06:19:05;;;;;;;14.43;10.00;;;18.40;99.90;;;;;;5049666;28;20829;-70
2021/09/07 06:21:32;;;;;;;15.27;9.47;;;18.30;99.90;;;;;;5040349;28;20462;-74
2021/09/07 06:23:59;;;;;;;20.63;10.23;;;18.30;99.90;;;;;;5050655;28;20515;-71
2021/09/07 06:26:26;;;;;;;13.40;8.10;;;18.50;99.90;;;;;;5039845;28;20571;-71
2021/09/07 06:28:53;;;;;;;16.10;8.30;;;18.60;99.90;;;;;;5046383;28;21027;-71
2021/09/07 06:31:20;;;;;;;15.70;8.90;;;18.70;99.90;;;;;;5042569;28;20651;-74
2021/09/07 06:33:49;;;;;;;24.33;11.60;;;18.80;99.90;;;;;;5040713;28;20475;-71
2021/09/07 06:36:15;;;;;;;12.67;8.70;;;18.80;99.90;;;;;;5041428;28;20801;-71
2021/09/07 06:38:42;;;;;;;20.13;10.30;;;18.80;99.90;;;;;;5046376;28;20483;-76
2021/09/07 06:41:10;;;;;;;14.17;9.50;;;18.80;99.90;;;;;;5042760;28;20488;-72
2021/09/07 06:43:37;;;;;;;14.37;9.20;;;18.90;99.90;;;;;;5036406;28;20479;-71
2021/09/07 06:46:04;;;;;;;21.47;9.67;;;18.90;99.90;;;;;;5045407;28;20534;-70
2021/09/07 06:48:31;;;;;;;14.20;8.80;;;19.00;99.90;;;;;;5047261;28;20494;-73
2021/09/07 06:51:00;;;;;;;22.23;10.60;;;19.10;99.90;;;;;;5048586;28;20848;-73
2021/09/07 06:53:27;;;;;;;18.83;10.50;;;19.10;99.90;;;;;;5045008;28;20958;-72
2021/09/07 06:55:55;;;;;;;17.87;10.30;;;19.20;99.90;;;;;;5049664;28;20531;-70
2021/09/07 06:58:22;;;;;;;18.03;10.30;;;19.30;99.90;;;;;;5050291;28;20554;-71
2021/09/07 07:00:49;;;;;;;17.33;9.30;;;19.20;99.90;;;;;;5051341;28;20455;-75
2021/09/07 07:03:16;;;;;;;15.83;9.23;;;19.40;99.90;;;;;;5046605;28;20490;-71
2021/09/07 07:05:43;;;;;;;13.30;8.27;;;19.50;99.90;;;;;;5051308;28;20448;-71
2021/09/07 07:08:12;;;;;;;10.77;7.50;;;19.50;99.90;;;;;;5050394;28;20479;-71
2021/09/07 07:10:39;;;;;;;13.70;8.87;;;19.60;99.90;;;;;;5038062;28;20487;-71
2021/09/07 07:13:06;;;;;;;16.13;9.80;;;19.70;99.90;;;;;;5045174;28;20489;-71
2021/09/07 07:15:33;;;;;;;17.37;9.53;;;19.80;99.90;;;;;;5048450;28;20602;-75
2021/09/07 07:18:00;;;;;;;20.13;9.70;;;19.70;99.90;;;;;;5049910;28;20519;-72
2021/09/07 07:20:27;;;;;;;12.13;8.90;;;20.00;99.90;;;;;;5046765;28;20519;-70
2021/09/07 07:22:54;;;;;;;21.23;10.10;;;20.00;99.90;;;;;;5044046;28;20460;-70
2021/09/07 07:25:22;;;;;;;25.87;12.60;;;19.90;99.90;;;;;;5049866;28;20831;-73
2021/09/07 07:27:49;;;;;;;23.97;13.43;;;19.90;99.90;;;;;;5039507;28;20960;-78
2021/09/07 07:30:16;;;;;;;24.27;12.97;;;19.90;99.90;;;;;;5041915;28;20491;-73
2021/09/07 07:32:43;;;;;;;16.83;9.03;;;20.10;99.90;;;;;;5048416;28;20463;-71
2021/09/07 07:35:11;;;;;;;21.73;10.87;;;20.10;99.90;;;;;;5049074;28;20467;-74
2021/09/07 07:37:38;;;;;;;18.50;12.47;;;20.20;99.90;;;;;;5047996;28;20511;-72
2021/09/07 07:40:06;;;;;;;16.13;11.20;;;20.40;99.90;;;;;;5048957;28;20936;-71
2021/09/07 07:42:35;;;;;;;13.70;9.20;;;20.50;99.90;;;;;;5047958;28;20505;-72
2021/09/07 07:45:02;;;;;;;20.60;10.67;;;20.60;99.90;;;;;;5050127;28;20555;-71
2021/09/07 07:47:29;;;;;;;15.13;8.90;;;20.50;99.90;;;;;;5050561;28;20475;-71
2021/09/07 07:49:56;;;;;;;15.47;8.90;;;20.60;99.90;;;;;;5052521;28;20502;-72
2021/09/07 07:52:23;;;;;;;12.83;9.30;;;20.60;99.90;;;;;;5048188;28;20987;-72
2021/09/07 07:54:50;;;;;;;16.83;10.10;;;20.70;99.90;;;;;;5049964;28;20520;-70
2021/09/07 07:57:17;;;;;;;13.57;9.77;;;20.80;99.90;;;;;;5052606;28;20572;-71
2021/09/07 07:59:46;;;;;;;16.70;9.80;;;20.90;99.90;;;;;;5050910;28;20513;-70
2021/09/07 08:02:13;;;;;;;26.60;12.13;;;21.00;99.90;;;;;;5048796;28;20575;-71
2021/09/07 08:04:40;;;;;;;24.03;12.67;;;20.80;99.90;;;;;;5045665;28;20551;-70
2021/09/07 08:07:09;;;;;;;16.80;9.00;;;21.00;99.90;;;;;;5040314;28;20487;-74
2021/09/07 08:09:36;;;;;;;14.93;8.83;;;20.90;99.90;;;;;;5044907;28;20455;-70
2021/09/07 08:12:04;;;;;;;17.30;10.17;;;21.10;99.90;;;;;;5046967;28;20464;-71
2021/09/07 08:14:31;;;;;;;16.93;9.67;;;20.80;99.90;;;;;;5048916;28;20476;-74
2021/09/07 08:16:59;;;;;;;16.60;9.70;;;20.90;99.90;;;;;;5053764;28;20798;-74
2021/09/07 08:19:27;;;;;;;18.40;10.23;;;21.10;99.90;;;;;;5049039;28;21034;-70
2021/09/07 08:21:54;;;;;;;19.10;10.37;;;21.10;99.90;;;;;;5041004;28;20460;-73
2021/09/07 08:24:21;;;;;;;18.87;10.47;;;21.10;99.90;;;;;;5052440;28;20507;-71
2021/09/07 08:26:48;;;;;;;15.37;9.50;;;21.30;99.90;;;;;;5052791;28;20444;-72
2021/09/07 08:29:15;;;;;;;61.97;14.90;;;21.50;99.90;;;;;;5053103;28;20929;-71
2021/09/07 08:31:42;;;;;;;58.80;15.07;;;21.60;99.90;;;;;;5048875;28;20482;-76
2021/09/07 08:34:10;;;;;;;575.27;81.57;;;21.80;99.90;;;;;;5053132;28;20500;-71
2021/09/07 08:36:37;;;;;;;19.83;10.47;;;22.10;99.90;;;;;;5053112;28;20483;-71
2021/09/07 08:39:05;;;;;;;20.80;10.17;;;22.20;99.90;;;;;;5054438;28;20447;-73
2021/09/07 08:41:32;;;;;;;20.20;10.83;;;22.50;99.90;;;;;;5049578;28;20574;-72
2021/09/07 08:43:58;;;;;;;19.93;9.27;;;22.80;99.90;;;;;;5051705;28;22270;-71
2021/09/07 08:46:25;;;;;;;13.90;9.70;;;23.00;99.90;;;;;;5052863;28;20534;-71
2021/09/07 08:48:52;;;;;;;19.93;9.20;;;23.10;99.90;;;;;;5052585;28;20506;-73
2021/09/07 08:51:22;;;;;;;13.90;10.43;;;22.90;99.90;;;;;;5039986;28;20970;-71
2021/09/07 08:53:49;;;;;;;17.53;10.47;;;22.80;99.90;;;;;;5051235;28;20502;-71
2021/09/07 08:56:16;;;;;;;19.07;9.37;;;23.00;99.90;;;;;;5051318;28;20505;-72
2021/09/07 08:58:44;;;;;;;15.57;10.33;;;23.40;99.90;;;;;;5049488;28;20441;-69
2021/09/07 09:01:13;;;;;;;23.43;12.00;;;23.40;99.90;;;;;;5052572;28;20443;-72
2021/09/07 09:03:42;;;;;;;15.57;10.23;;;23.30;99.90;;;;;;5050768;28;20479;-71
2021/09/07 09:06:09;;;;;;;19.53;9.77;;;23.40;99.90;;;;;;5049448;28;20446;-72
2021/09/07 09:08:38;;;;;;;12.30;9.37;;;23.30;99.90;;;;;;5049069;28;20862;-70
2021/09/07 09:11:06;;;;;;;13.20;9.60;;;23.60;99.90;;;;;;5050702;28;20455;-72
2021/09/07 09:13:45;;;;;;;28.33;11.20;;;24.00;99.90;;;;;;5061099;22;20507;-71
2021/09/07 09:16:12;;;;;;;17.30;9.80;;;24.10;99.90;;;;;;5105707;28;20512;-67
2021/09/07 09:18:41;;;;;;;14.60;8.80;;;24.40;99.90;;;;;;5102936;27;21068;-72
2021/09/07 09:21:28;;;;;;;14.63;9.47;;;24.70;99.90;;;;;;5105988;28;20449;-70
2021/09/07 09:24:18;;;;;;;11.23;8.10;;;24.50;99.90;;;;;;5102307;28;21037;-69
2021/09/07 09:26:56;;;;;;;12.60;7.30;;;24.50;99.90;;;;;;5109347;28;20448;-70
2021/09/07 09:29:25;;;;;;;19.73;9.90;;;24.90;99.90;;;;;;5107104;28;20464;-71
2021/09/07 09:31:54;;;;;;;14.10;9.10;;;24.90;99.90;;;;;;5107093;28;20526;-70
2021/09/07 09:34:21;;;;;;;18.57;8.23;;;25.20;99.90;;;;;;5106043;28;20551;-70
2021/09/07 09:37:00;;;;;;;15.50;9.43;;;25.60;99.90;;;;;;5105888;28;20472;-69
2021/09/07 09:39:43;;;;;;;14.10;9.47;;;25.70;99.90;;;;;;5107672;28;20445;-69
2021/09/07 09:42:13;;;;;;;12.57;8.20;;;26.10;99.90;;;;;;5107834;28;20505;-69
2021/09/07 09:44:40;;;;;;;16.90;7.53;;;26.50;99.90;;;;;;5107529;28;20708;-69
2021/09/07 09:47:07;;;;;;;14.70;9.83;;;26.70;99.90;;;;;;5116856;28;20491;-67
2021/09/07 09:49:35;;;;;;;16.93;10.17;;;26.50;99.90;;;;;;5117693;28;20453;-68
2021/09/07 09:52:05;;;;;;;14.57;9.43;;;26.70;99.90;;;;;;5106688;27;20456;-72
2021/09/07 09:54:34;;;;;;;15.47;9.10;;;27.10;99.90;;;;;;5106403;28;20466;-67
2021/09/07 09:57:03;;;;;;;13.07;9.23;;;27.80;99.90;;;;;;5099387;28;20527;-69
2021/09/07 09:59:31;;;;;;;16.73;9.90;;;28.10;99.90;;;;;;5107702;28;20818;-69
2021/09/07 10:02:00;;;;;;;13.57;9.40;;;28.10;99.90;;;;;;5102319;28;20557;-69
2021/09/07 10:04:27;;;;;;;11.60;9.27;;;28.00;99.90;;;;;;5098707;28;20466;-70
2021/09/07 10:06:55;;;;;;;12.40;7.67;;;28.10;99.90;;;;;;5110356;28;20449;-73
2021/09/07 10:09:23;;;;;;;15.73;7.17;;;27.90;99.90;;;;;;5104607;28;20877;-70
2021/09/07 10:12:00;;;;;;;10.70;7.43;;;28.70;99.90;;;;;;5106060;28;20866;-68
2021/09/07 10:14:32;;;;;;;16.57;9.63;;;28.60;99.90;;;;;;5107141;28;20472;-71
2021/09/07 10:17:36;;;;;;;17.23;8.83;;;28.20;99.90;;;;;;5108353;28;20445;-70
2021/09/07 10:20:17;;;;;;;9.63;7.47;;;28.20;99.90;;;;;;5108506;28;20440;-68
2021/09/07 10:25:53;;;;;;;12.47;7.50;;;27.40;99.90;;;;;;5091499;28;20872;-72
2021/09/07 10:28:39;;;;;;;10.60;7.53;;;27.70;99.90;;;;;;5105531;28;20521;-68
2021/09/07 10:31:10;;;;;;;10.67;8.37;;;27.60;99.90;;;;;;5108890;28;20839;-69
2021/09/07 10:33:39;;;;;;;14.67;9.97;;;28.00;99.90;;;;;;5107016;28;20537;-71
2021/09/07 10:36:18;;;;;;;11.30;7.90;;;28.10;99.90;;;;;;5105776;28;20472;-69
2021/09/07 10:38:48;;;;;;;11.30;6.57;;;28.30;99.90;;;;;;5099171;28;20474;-69
2021/09/07 10:41:43;;;;;;;10.50;7.00;;;28.60;99.90;;;;;;5107068;28;20453;-69
2021/09/07 10:44:23;;;;;;;11.83;8.07;;;28.60;99.90;;;;;;5105174;28;20939;-69
2021/09/07 10:47:01;;;;;;;16.00;6.73;;;28.10;99.90;;;;;;5105028;28;20442;-73
2021/09/07 10:49:40;;;;;;;9.83;6.50;;;27.70;99.90;;;;;;5108458;28;20441;-70
2021/09/07 10:52:16;;;;;;;11.33;6.03;;;27.90;99.90;;;;;;5108133;28;20548;-68
2021/09/07 10:54:48;;;;;;;13.60;9.90;;;27.60;99.90;;;;;;5105044;28;21013;-69
2021/09/07 10:57:48;;;;;;;12.37;7.10;;;27.50;99.90;;;;;;5110838;28;20496;-69
2021/09/07 11:00:35;;;;;;;13.47;6.83;;;27.70;99.90;;;;;;5105571;28;20456;-69
2021/09/07 11:03:06;;;;;;;10.50;5.90;;;27.30;99.90;;;;;;5107177;28;20456;-71
2021/09/07 11:05:41;;;;;;;16.90;6.93;;;27.10;99.90;;;;;;5109467;28;20496;-69
2021/09/07 11:08:10;;;;;;;11.70;6.50;;;27.20;99.90;;;;;;5109911;28;20524;-69
2021/09/07 11:10:40;;;;;;;30.40;7.93;;;27.10;99.90;;;;;;5107829;28;20488;-69
2021/09/07 11:13:09;;;;;;;24.73;7.70;;;27.10;99.90;;;;;;5104967;28;20540;-70
2021/09/07 11:15:37;;;;;;;47.40;11.20;;;27.50;99.90;;;;;;5092526;28;20505;-72
2021/09/07 11:18:07;;;;;;;38.80;11.00;;;27.80;99.90;;;;;;5101063;28;20476;-70
2021/09/07 11:20:37;;;;;;;10.80;7.50;;;28.10;99.90;;;;;;5105141;28;20528;-71
2021/09/07 11:23:12;;;;;;;11.20;7.60;;;28.20;99.90;;;;;;5104515;28;20488;-73
2021/09/07 11:25:40;;;;;;;12.60;7.70;;;28.00;99.90;;;;;;5103830;28;20481;-68
2021/09/07 11:28:10;;;;;;;30.67;8.77;;;28.00;99.90;;;;;;5110886;28;20487;-68
2021/09/07 11:30:38;;;;;;;30.77;8.60;;;28.40;99.90;;;;;;5110279;28;20487;-69
2021/09/07 11:33:12;;;;;;;10.47;6.80;;;28.90;99.90;;;;;;5108724;28;20988;-69
2021/09/07 11:35:42;;;;;;;98.23;18.10;;;28.80;99.90;;;;;;5101021;28;20983;-73
2021/09/07 11:38:10;;;;;;;10.37;7.10;;;29.10;98.30;;;;;;5097795;28;20473;-71
2021/09/07 11:40:43;;;;;;;17.83;7.83;;;29.20;97.80;;;;;;5105759;28;20453;-69
2021/09/07 11:43:11;;;;;;;13.23;7.37;;;29.30;97.70;;;;;;5106708;28;20464;-68
2021/09/07 11:45:38;;;;;;;14.63;7.00;;;29.70;98.40;;;;;;5099973;28;20875;-68
2021/09/07 11:48:07;;;;;;;10.57;6.73;;;29.30;94.90;;;;;;5104939;28;20886;-71
2021/09/07 11:50:37;;;;;;;8.67;5.60;;;29.40;94.00;;;;;;5112116;28;20488;-68
2021/09/07 11:53:06;;;;;;;8.70;6.10;;;29.30;88.90;;;;;;5114417;27;20460;-69
2021/09/07 11:55:51;;;;;;;10.53;6.93;;;29.30;91.50;;;;;;5108251;28;20493;-68
2021/09/07 11:58:30;;;;;;;10.77;8.10;;;29.10;91.90;;;;;;5113658;28;21011;-70
2021/09/07 12:01:16;;;;;;;10.43;6.57;;;29.10;92.90;;;;;;5103587;28;20544;-70
2021/09/07 12:03:52;;;;;;;10.87;6.40;;;29.30;92.20;;;;;;5103219;28;20484;-70
2021/09/07 12:06:31;;;;;;;21.20;8.50;;;29.60;93.60;;;;;;5100778;28;20476;-70
2021/09/07 12:09:10;;;;;;;491.17;48.80;;;30.70;93.40;;;;;;5108582;28;20468;-71
2021/09/07 12:11:38;;;;;;;391.30;65.07;;;31.60;91.10;;;;;;5110625;28;20472;-70
2021/09/07 12:14:08;;;;;;;13.10;7.63;;;31.40;90.40;;;;;;5100564;28;20484;-70
2021/09/07 12:16:37;;;;;;;20.60;8.80;;;31.40;88.70;;;;;;5108808;28;20533;-70
2021/09/07 12:19:24;;;;;;;9.87;6.07;;;32.30;86.20;;;;;;5111838;28;20559;-68
2021/09/07 12:22:13;;;;;;;11.47;7.20;;;32.50;82.80;;;;;;5111624;27;20513;-68
2021/09/07 12:24:41;;;;;;;10.67;7.43;;;31.80;81.20;;;;;;5108734;28;20547;-69
2021/09/07 12:27:22;;;;;;;9.30;6.80;;;31.30;83.20;;;;;;5113859;28;20483;-69
2021/09/07 12:30:07;;;;;;;12.37;7.30;;;31.80;81.80;;;;;;5106430;28;20444;-70
2021/09/07 12:32:57;;;;;;;12.80;7.70;;;31.90;79.40;;;;;;5100180;28;20987;-69
2021/09/07 12:35:43;;;;;;;10.10;7.30;;;31.50;80.40;;;;;;5111423;28;20468;-72
2021/09/07 12:38:14;;;;;;;13.10;7.23;;;31.30;83.80;;;;;;5110885;28;20594;-70
2021/09/07 12:40:44;;;;;;;19.00;7.93;;;32.00;82.00;;;;;;5106829;28;20517;-70
2021/09/07 12:43:13;;;;;;;10.33;6.63;;;32.90;80.70;;;;;;5108538;28;20464;-73
2021/09/07 12:45:40;;;;;;;16.50;7.83;;;34.80;75.20;;;;;;5102792;28;20480;-70
2021/09/07 12:48:07;;;;;;;15.50;8.50;;;34.90;71.30;;;;;;5106305;28;20480;-73